sensor_id;sensor_type;location;lat;lon;timestamp;temperature;humidity
54260;DHT22;40172;53.022;7.012;2023-09-30T00:02:14;11.40;99.90
54260;DHT22;40172;53.022;7.012;2023-09-30T00:04:39;11.40;99.90
54260;DHT22;40172;53.022;7.012;2023-09-30T00:07:05;11.40;99.90
54260;DHT22;40172;53.022;7.012;2023-09-30T00:09:31;11.40;99.90
54260;DHT22;40172;53.022;7.012;2023-09-30T00:11:57;11.40;99.90
54260;DHT22;40172;53.022;7.012;2023-09-30T00:14:23;11.40;99.90
54260;DHT22;40172;53.022;7.012;2023-09-30T00:16:48;11.30;99.90
54260;DHT22;40172;53.022;7.012;2023-09-30T00:19:14;11.30;99.90
54260;DHT22;40172;53.022;7.012;2023-09-30T00:21:40;11.30;99.90
54260;DHT22;40172;53.022;7.012;2023-09-30T00:24:05;11.30;99.90
54260;DHT22;40172;53.022;7.012;2023-09-30T00:26:31;11.20;99.90
54260;DHT22;40172;53.022;7.012;2023-09-30T00:28:57;11.20;99.90
54260;DHT22;40172;53.022;7.012;2023-09-30T00:31:22;11.30;99.90
54260;DHT22;40172;53.022;7.012;2023-09-30T00:33:48;11.20;99.90
54260;DHT22;40172;53.022;7.012;2023-09-30T00:36:13;11.20;99.90
54260;DHT22;40172;53.022;7.012;2023-09-30T00:38:39;11.20;99.90
54260;DHT22;40172;53.022;7.012;2023-09-30T00:41:08;11.20;99.90
54260;DHT22;40172;53.022;7.012;2023-09-30T00:43:34;11.20;99.90
54260;DHT22;40172;53.022;7.012;2023-09-30T00:46:10;11.30;99.90
54260;DHT22;40172;53.022;7.012;2023-09-30T00:48:39;11.30;99.90
54260;DHT22;40172;53.022;7.012;2023-09-30T00:51:05;11.20;99.90
54260;DHT22;40172;53.022;7.012;2023-09-30T00:53:31;11.20;99.90
54260;DHT22;40172;53.022;7.012;2023-09-30T00:55:58;11.20;99.90
54260;DHT22;40172;53.022;7.012;2023-09-30T00:58:26;11.20;99.90
54260;DHT22;40172;53.022;7.012;2023-09-30T01:00:56;11.20;99.90
54260;DHT22;40172;53.022;7.012;2023-09-30T01:03:22;11.20;99.90
54260;DHT22;40172;53.022;7.012;2023-09-30T01:05:48;11.10;99.90
54260;DHT22;40172;53.022;7.012;2023-09-30T01:08:18;11.10;99.90
54260;DHT22;40172;53.022;7.012;2023-09-30T01:10:45;11.10;99.90
54260;DHT22;40172;53.022;7.012;2023-09-30T01:13:10;11.10;99.90
54260;DHT22;40172;53.022;7.012;2023-09-30T01:15:36;11.10;99.90
54260;DHT22;40172;53.022;7.012;2023-09-30T01:18:03;11.10;99.90
54260;DHT22;40172;53.022;7.012;2023-09-30T01:20:28;11.10;99.90
54260;DHT22;40172;53.022;7.012;2023-09-30T01:22:56;11.20;99.90
54260;DHT22;40172;53.022;7.012;2023-09-30T01:25:22;11.20;99.90
54260;DHT22;40172;53.022;7.012;2023-09-30T01:27:48;11.20;99.90
54260;DHT22;40172;53.022;7.012;2023-09-30T01:30:13;11.20;99.90
54260;DHT22;40172;53.022;7.012;2023-09-30T01:32:39;11.20;99.90
54260;DHT22;40172;53.022;7.012;2023-09-30T01:35:05;11.20;99.90
54260;DHT22;40172;53.022;7.012;2023-09-30T01:37:31;11.30;99.90
54260;DHT22;40172;53.022;7.012;2023-09-30T01:39:57;11.20;99.90
54260;DHT22;40172;53.022;7.012;2023-09-30T01:42:23;11.30;99.90
54260;DHT22;40172;53.022;7.012;2023-09-30T01:44:48;11.20;99.90
54260;DHT22;40172;53.022;7.012;2023-09-30T01:47:14;11.30;99.90
54260;DHT22;40172;53.022;7.012;2023-09-30T01:49:39;11.30;99.90
54260;DHT22;40172;53.022;7.012;2023-09-30T01:52:05;11.20;99.90
54260;DHT22;40172;53.022;7.012;2023-09-30T01:54:30;11.30;99.90
54260;DHT22;40172;53.022;7.012;2023-09-30T01:56:56;11.30;99.90
54260;DHT22;40172;53.022;7.012;2023-09-30T01:59:22;11.30;99.90
54260;DHT22;40172;53.022;7.012;2023-09-30T02:01:48;11.30;99.90
54260;DHT22;40172;53.022;7.012;2023-09-30T02:04:14;11.40;99.90
54260;DHT22;40172;53.022;7.012;2023-09-30T02:06:42;11.40;99.90
54260;DHT22;40172;53.022;7.012;2023-09-30T02:09:08;11.40;99.90
54260;DHT22;40172;53.022;7.012;2023-09-30T02:11:35;11.30;99.90
54260;DHT22;40172;53.022;7.012;2023-09-30T02:14:02;11.30;99.90
54260;DHT22;40172;53.022;7.012;2023-09-30T02:16:28;11.30;99.90
54260;DHT22;40172;53.022;7.012;2023-09-30T02:18:53;11.30;99.90
54260;DHT22;40172;53.022;7.012;2023-09-30T02:21:19;11.30;99.90
54260;DHT22;40172;53.022;7.012;2023-09-30T02:23:47;11.30;99.90
54260;DHT22;40172;53.022;7.012;2023-09-30T02:26:16;11.20;99.90
54260;DHT22;40172;53.022;7.012;2023-09-30T02:28:43;11.30;99.90
54260;DHT22;40172;53.022;7.012;2023-09-30T02:31:08;11.30;99.90
54260;DHT22;40172;53.022;7.012;2023-09-30T02:33:34;11.20;99.90
54260;DHT22;40172;53.022;7.012;2023-09-30T02:36:07;11.30;99.90
54260;DHT22;40172;53.022;7.012;2023-09-30T02:38:33;11.30;99.90
54260;DHT22;40172;53.022;7.012;2023-09-30T02:40:58;11.20;99.90
54260;DHT22;40172;53.022;7.012;2023-09-30T02:43:24;11.30;99.90
54260;DHT22;40172;53.022;7.012;2023-09-30T02:45:49;11.30;99.90
54260;DHT22;40172;53.022;7.012;2023-09-30T02:48:15;11.30;99.90
54260;DHT22;40172;53.022;7.012;2023-09-30T02:50:42;11.40;99.90
54260;DHT22;40172;53.022;7.012;2023-09-30T02:53:10;11.40;99.90
54260;DHT22;40172;53.022;7.012;2023-09-30T02:55:37;11.50;99.90
54260;DHT22;40172;53.022;7.012;2023-09-30T02:58:02;11.50;99.90
54260;DHT22;40172;53.022;7.012;2023-09-30T03:00:28;11.50;99.90
54260;DHT22;40172;53.022;7.012;2023-09-30T03:03:00;11.50;99.90
54260;DHT22;40172;53.022;7.012;2023-09-30T03:05:25;11.50;99.90
54260;DHT22;40172;53.022;7.012;2023-09-30T03:07:53;11.50;99.90
54260;DHT22;40172;53.022;7.012;2023-09-30T03:10:20;11.50;99.90
54260;DHT22;40172;53.022;7.012;2023-09-30T03:12:58;11.50;99.90
54260;DHT22;40172;53.022;7.012;2023-09-30T03:15:28;11.50;99.90
54260;DHT22;40172;53.022;7.012;2023-09-30T03:17:56;11.50;99.90
54260;DHT22;40172;53.022;7.012;2023-09-30T03:20:22;11.50;99.90
54260;DHT22;40172;53.022;7.012;2023-09-30T03:22:50;11.50;99.90
54260;DHT22;40172;53.022;7.012;2023-09-30T03:25:17;11.50;99.90
54260;DHT22;40172;53.022;7.012;2023-09-30T03:27:47;11.40;99.90
54260;DHT22;40172;53.022;7.012;2023-09-30T03:30:14;11.40;99.90
54260;DHT22;40172;53.022;7.012;2023-09-30T03:32:41;11.40;99.90
54260;DHT22;40172;53.022;7.012;2023-09-30T03:35:11;11.50;99.90
54260;DHT22;40172;53.022;7.012;2023-09-30T03:37:40;11.50;99.90
54260;DHT22;40172;53.022;7.012;2023-09-30T03:40:07;11.50;99.90
54260;DHT22;40172;53.022;7.012;2023-09-30T03:42:43;11.60;99.90
54260;DHT22;40172;53.022;7.012;2023-09-30T03:45:09;11.60;99.90
54260;DHT22;40172;53.022;7.012;2023-09-30T03:47:36;11.60;99.90
54260;DHT22;40172;53.022;7.012;2023-09-30T03:50:02;11.60;99.90
54260;DHT22;40172;53.022;7.012;2023-09-30T03:52:29;11.60;99.90
54260;DHT22;40172;53.022;7.012;2023-09-30T03:54:55;11.60;99.90
54260;DHT22;40172;53.022;7.012;2023-09-30T03:57:20;11.60;99.90
54260;DHT22;40172;53.022;7.012;2023-09-30T03:59:46;11.60;99.90
54260;DHT22;40172;53.022;7.012;2023-09-30T04:02:12;11.50;99.90
54260;DHT22;40172;53.022;7.012;2023-09-30T04:04:38;11.50;99.90
54260;DHT22;40172;53.022;7.012;2023-09-30T04:07:03;11.50;99.90
54260;DHT22;40172;53.022;7.012;2023-09-30T04:09:35;11.50;99.90
54260;DHT22;40172;53.022;7.012;2023-09-30T04:12:01;11.50;99.90
54260;DHT22;40172;53.022;7.012;2023-09-30T04:14:27;11.50;99.90
54260;DHT22;40172;53.022;7.012;2023-09-30T04:16:52;11.60;99.90
54260;DHT22;40172;53.022;7.012;2023-09-30T04:19:19;11.60;99.90
54260;DHT22;40172;53.022;7.012;2023-09-30T04:21:45;11.60;99.90
54260;DHT22;40172;53.022;7.012;2023-09-30T04:24:12;11.60;99.90
54260;DHT22;40172;53.022;7.012;2023-09-30T04:26:37;11.60;99.90
54260;DHT22;40172;53.022;7.012;2023-09-30T04:29:03;11.60;99.90
54260;DHT22;40172;53.022;7.012;2023-09-30T04:31:30;11.60;99.90
54260;DHT22;40172;53.022;7.012;2023-09-30T04:33:55;11.60;99.90
54260;DHT22;40172;53.022;7.012;2023-09-30T04:36:23;12.70;99.90
54260;DHT22;40172;53.022;7.012;2023-09-30T04:38:49;11.50;99.90
54260;DHT22;40172;53.022;7.012;2023-09-30T04:41:14;11.50;99.90
54260;DHT22;40172;53.022;7.012;2023-09-30T04:43:41;11.40;99.90
54260;DHT22;40172;53.022;7.012;2023-09-30T04:46:09;11.40;99.90
54260;DHT22;40172;53.022;7.012;2023-09-30T04:48:34;11.40;99.90
54260;DHT22;40172;53.022;7.012;2023-09-30T04:51:00;11.40;99.90
54260;DHT22;40172;53.022;7.012;2023-09-30T04:53:30;11.30;99.90
54260;DHT22;40172;53.022;7.012;2023-09-30T04:55:55;11.20;99.90
54260;DHT22;40172;53.022;7.012;2023-09-30T04:58:21;11.20;99.90
54260;DHT22;40172;53.022;7.012;2023-09-30T05:00:49;11.20;99.90
54260;DHT22;40172;53.022;7.012;2023-09-30T05:03:14;11.10;99.90
54260;DHT22;40172;53.022;7.012;2023-09-30T05:05:41;11.20;99.90
54260;DHT22;40172;53.022;7.012;2023-09-30T05:08:07;11.10;99.90
54260;DHT22;40172;53.022;7.012;2023-09-30T05:10:33;11.10;99.90
54260;DHT22;40172;53.022;7.012;2023-09-30T05:12:59;11.10;99.90
54260;DHT22;40172;53.022;7.012;2023-09-30T05:15:24;11.10;99.90
54260;DHT22;40172;53.022;7.012;2023-09-30T05:17:51;11.10;99.90
54260;DHT22;40172;53.022;7.012;2023-09-30T05:20:17;11.10;99.90
54260;DHT22;40172;53.022;7.012;2023-09-30T05:22:43;11.10;99.90
54260;DHT22;40172;53.022;7.012;2023-09-30T05:25:11;11.10;99.90
54260;DHT22;40172;53.022;7.012;2023-09-30T05:27:37;11.00;99.90
54260;DHT22;40172;53.022;7.012;2023-09-30T05:30:04;11.00;99.90
54260;DHT22;40172;53.022;7.012;2023-09-30T05:32:32;11.00;99.90
54260;DHT22;40172;53.022;7.012;2023-09-30T05:34:57;10.90;99.90
54260;DHT22;40172;53.022;7.012;2023-09-30T05:37:24;10.90;99.90
54260;DHT22;40172;53.022;7.012;2023-09-30T05:39:50;10.90;99.90
54260;DHT22;40172;53.022;7.012;2023-09-30T05:42:16;10.90;99.90
54260;DHT22;40172;53.022;7.012;2023-09-30T05:44:42;10.90;99.90
54260;DHT22;40172;53.022;7.012;2023-09-30T05:47:08;10.90;99.90
54260;DHT22;40172;53.022;7.012;2023-09-30T05:49:34;10.90;99.90
54260;DHT22;40172;53.022;7.012;2023-09-30T05:52:02;10.90;99.90
54260;DHT22;40172;53.022;7.012;2023-09-30T05:54:27;10.90;99.90
54260;DHT22;40172;53.022;7.012;2023-09-30T05:56:54;11.00;99.90
54260;DHT22;40172;53.022;7.012;2023-09-30T05:59:20;11.00;99.90
54260;DHT22;40172;53.022;7.012;2023-09-30T06:01:46;11.00;99.90
54260;DHT22;40172;53.022;7.012;2023-09-30T06:04:12;11.00;99.90
54260;DHT22;40172;53.022;7.012;2023-09-30T06:06:37;10.90;99.90
54260;DHT22;40172;53.022;7.012;2023-09-30T06:09:04;11.10;99.90
54260;DHT22;40172;53.022;7.012;2023-09-30T06:11:33;11.10;99.90
54260;DHT22;40172;53.022;7.012;2023-09-30T06:13:59;11.10;99.90
54260;DHT22;40172;53.022;7.012;2023-09-30T06:16:26;11.10;99.90
54260;DHT22;40172;53.022;7.012;2023-09-30T06:18:53;11.40;99.90
54260;DHT22;40172;53.022;7.012;2023-09-30T06:21:19;11.20;99.90
54260;DHT22;40172;53.022;7.012;2023-09-30T06:23:47;11.10;99.90
54260;DHT22;40172;53.022;7.012;2023-09-30T06:26:14;11.20;99.90
54260;DHT22;40172;53.022;7.012;2023-09-30T06:28:40;11.20;99.90
54260;DHT22;40172;53.022;7.012;2023-09-30T06:31:09;11.20;99.90
54260;DHT22;40172;53.022;7.012;2023-09-30T06:33:36;11.20;99.90
54260;DHT22;40172;53.022;7.012;2023-09-30T06:36:11;11.30;99.90
54260;DHT22;40172;53.022;7.012;2023-09-30T06:38:37;11.30;99.90
54260;DHT22;40172;53.022;7.012;2023-09-30T06:41:05;11.40;99.90
54260;DHT22;40172;53.022;7.012;2023-09-30T06:43:32;11.40;99.90
54260;DHT22;40172;53.022;7.012;2023-09-30T06:45:58;11.50;99.90
54260;DHT22;40172;53.022;7.012;2023-09-30T06:48:24;11.50;99.90
54260;DHT22;40172;53.022;7.012;2023-09-30T06:50:50;11.60;99.90
54260;DHT22;40172;53.022;7.012;2023-09-30T06:53:18;11.60;99.90
54260;DHT22;40172;53.022;7.012;2023-09-30T06:55:47;11.70;99.90
54260;DHT22;40172;53.022;7.012;2023-09-30T06:58:13;11.70;99.90
54260;DHT22;40172;53.022;7.012;2023-09-30T07:00:41;11.80;99.90
54260;DHT22;40172;53.022;7.012;2023-09-30T07:03:07;11.90;99.90
54260;DHT22;40172;53.022;7.012;2023-09-30T07:05:35;12.00;99.90
54260;DHT22;40172;53.022;7.012;2023-09-30T07:08:01;12.10;99.90
54260;DHT22;40172;53.022;7.012;2023-09-30T07:10:27;12.10;99.90
54260;DHT22;40172;53.022;7.012;2023-09-30T07:12:54;12.20;99.90
54260;DHT22;40172;53.022;7.012;2023-09-30T07:15:20;12.30;99.90
54260;DHT22;40172;53.022;7.012;2023-09-30T07:17:46;12.40;99.90
54260;DHT22;40172;53.022;7.012;2023-09-30T07:20:13;12.40;99.90
54260;DHT22;40172;53.022;7.012;2023-09-30T07:22:38;12.50;99.90
54260;DHT22;40172;53.022;7.012;2023-09-30T07:25:04;12.60;99.90
54260;DHT22;40172;53.022;7.012;2023-09-30T07:27:30;12.70;99.90
54260;DHT22;40172;53.022;7.012;2023-09-30T07:29:55;12.80;99.90
54260;DHT22;40172;53.022;7.012;2023-09-30T07:32:21;12.90;99.90
54260;DHT22;40172;53.022;7.012;2023-09-30T07:34:51;13.00;99.90
54260;DHT22;40172;53.022;7.012;2023-09-30T07:37:17;13.10;99.90
54260;DHT22;40172;53.022;7.012;2023-09-30T07:39:44;13.20;99.90
54260;DHT22;40172;53.022;7.012;2023-09-30T07:42:10;13.30;99.90
54260;DHT22;40172;53.022;7.012;2023-09-30T07:44:35;13.40;99.90
54260;DHT22;40172;53.022;7.012;2023-09-30T07:47:03;13.40;99.90
54260;DHT22;40172;53.022;7.012;2023-09-30T07:49:29;14.30;99.90
54260;DHT22;40172;53.022;7.012;2023-09-30T07:51:55;13.60;99.90
54260;DHT22;40172;53.022;7.012;2023-09-30T07:54:21;13.70;99.90
54260;DHT22;40172;53.022;7.012;2023-09-30T07:56:46;13.70;99.90
54260;DHT22;40172;53.022;7.012;2023-09-30T07:59:12;13.70;99.90
54260;DHT22;40172;53.022;7.012;2023-09-30T08:01:39;13.80;99.90
54260;DHT22;40172;53.022;7.012;2023-09-30T08:04:04;13.90;99.90
54260;DHT22;40172;53.022;7.012;2023-09-30T08:06:30;14.00;99.90
54260;DHT22;40172;53.022;7.012;2023-09-30T08:08:56;14.00;99.90
54260;DHT22;40172;53.022;7.012;2023-09-30T08:11:22;14.10;99.90
54260;DHT22;40172;53.022;7.012;2023-09-30T08:13:47;14.20;99.90
54260;DHT22;40172;53.022;7.012;2023-09-30T08:16:13;14.20;99.90
54260;DHT22;40172;53.022;7.012;2023-09-30T08:18:39;14.30;99.90
54260;DHT22;40172;53.022;7.012;2023-09-30T08:21:09;14.40;99.90
54260;DHT22;40172;53.022;7.012;2023-09-30T08:23:35;14.50;99.90
54260;DHT22;40172;53.022;7.012;2023-09-30T08:26:01;14.50;99.90
54260;DHT22;40172;53.022;7.012;2023-09-30T08:28:26;14.60;99.90
54260;DHT22;40172;53.022;7.012;2023-09-30T08:30:52;14.70;99.90
54260;DHT22;40172;53.022;7.012;2023-09-30T08:33:22;14.80;99.90
54260;DHT22;40172;53.022;7.012;2023-09-30T08:35:48;14.90;99.90
54260;DHT22;40172;53.022;7.012;2023-09-30T08:38:14;15.00;99.90
54260;DHT22;40172;53.022;7.012;2023-09-30T08:40:39;15.10;99.90
54260;DHT22;40172;53.022;7.012;2023-09-30T08:43:06;15.20;99.90
54260;DHT22;40172;53.022;7.012;2023-09-30T08:45:40;15.00;99.90
54260;DHT22;40172;53.022;7.012;2023-09-30T08:48:09;15.30;99.90
54260;DHT22;40172;53.022;7.012;2023-09-30T08:50:36;15.40;99.90
54260;DHT22;40172;53.022;7.012;2023-09-30T08:53:05;15.40;99.90
54260;DHT22;40172;53.022;7.012;2023-09-30T08:55:33;15.50;99.90
54260;DHT22;40172;53.022;7.012;2023-09-30T08:57:59;15.60;99.90
54260;DHT22;40172;53.022;7.012;2023-09-30T09:00:25;15.70;99.90
54260;DHT22;40172;53.022;7.012;2023-09-30T09:02:50;15.80;99.90
54260;DHT22;40172;53.022;7.012;2023-09-30T09:05:16;15.80;99.90
54260;DHT22;40172;53.022;7.012;2023-09-30T09:07:42;17.30;99.90
54260;DHT22;40172;53.022;7.012;2023-09-30T09:10:12;16.10;99.90
54260;DHT22;40172;53.022;7.012;2023-09-30T09:12:41;17.10;99.90
54260;DHT22;40172;53.022;7.012;2023-09-30T09:15:28;16.00;99.90
54260;DHT22;40172;53.022;7.012;2023-09-30T09:17:54;16.10;99.90
54260;DHT22;40172;53.022;7.012;2023-09-30T09:20:23;16.20;99.90
54260;DHT22;40172;53.022;7.012;2023-09-30T09:22:51;16.20;99.90
54260;DHT22;40172;53.022;7.012;2023-09-30T09:25:19;16.10;99.90
54260;DHT22;40172;53.022;7.012;2023-09-30T09:27:45;16.30;99.90
54260;DHT22;40172;53.022;7.012;2023-09-30T09:30:24;17.70;99.90
54260;DHT22;40172;53.022;7.012;2023-09-30T09:35:20;16.60;99.90
54260;DHT22;40172;53.022;7.012;2023-09-30T09:38:02;16.60;99.90
54260;DHT22;40172;53.022;7.012;2023-09-30T09:40:31;16.80;99.90
54260;DHT22;40172;53.022;7.012;2023-09-30T09:42:58;16.80;99.90
54260;DHT22;40172;53.022;7.012;2023-09-30T09:45:27;16.80;99.90
54260;DHT22;40172;53.022;7.012;2023-09-30T09:47:54;17.00;99.90
54260;DHT22;40172;53.022;7.012;2023-09-30T09:50:21;17.10;99.90
54260;DHT22;40172;53.022;7.012;2023-09-30T09:52:53;17.20;99.90
54260;DHT22;40172;53.022;7.012;2023-09-30T09:55:22;17.60;99.90
54260;DHT22;40172;53.022;7.012;2023-09-30T09:57:48;17.30;99.90
54260;DHT22;40172;53.022;7.012;2023-09-30T10:00:25;17.40;99.90
54260;DHT22;40172;53.022;7.012;2023-09-30T10:02:52;17.50;99.90
54260;DHT22;40172;53.022;7.012;2023-09-30T10:05:19;17.50;99.90
54260;DHT22;40172;53.022;7.012;2023-09-30T10:08:08;17.60;99.90
54260;DHT22;40172;53.022;7.012;2023-09-30T10:10:36;17.60;99.90
54260;DHT22;40172;53.022;7.012;2023-09-30T10:13:03;17.70;99.90
54260;DHT22;40172;53.022;7.012;2023-09-30T10:20:31;17.80;99.90
54260;DHT22;40172;53.022;7.012;2023-09-30T10:25:42;18.00;99.90
54260;DHT22;40172;53.022;7.012;2023-09-30T10:28:41;18.10;99.90
54260;DHT22;40172;53.022;7.012;2023-09-30T10:31:16;18.20;99.90
54260;DHT22;40172;53.022;7.012;2023-09-30T10:36:28;18.40;99.90
54260;DHT22;40172;53.022;7.012;2023-09-30T10:38:54;18.30;99.90
54260;DHT22;40172;53.022;7.012;2023-09-30T10:46:57;19.40;99.90
54260;DHT22;40172;53.022;7.012;2023-09-30T10:51:58;18.80;99.90
54260;DHT22;40172;53.022;7.012;2023-09-30T10:54:28;18.90;99.90
54260;DHT22;40172;53.022;7.012;2023-09-30T10:56:58;18.80;99.90
54260;DHT22;40172;53.022;7.012;2023-09-30T10:59:28;18.90;99.90
54260;DHT22;40172;53.022;7.012;2023-09-30T11:01:58;18.70;99.90
54260;DHT22;40172;53.022;7.012;2023-09-30T11:04:24;18.80;99.90
54260;DHT22;40172;53.022;7.012;2023-09-30T11:06:52;18.50;99.90
54260;DHT22;40172;53.022;7.012;2023-09-30T11:09:19;18.50;99.90
54260;DHT22;40172;53.022;7.012;2023-09-30T11:16:52;18.90;99.90
54260;DHT22;40172;53.022;7.012;2023-09-30T11:19:19;18.90;99.90
54260;DHT22;40172;53.022;7.012;2023-09-30T11:21:55;18.80;99.90
54260;DHT22;40172;53.022;7.012;2023-09-30T11:24:21;18.70;99.90
54260;DHT22;40172;53.022;7.012;2023-09-30T11:26:47;18.60;99.90
54260;DHT22;40172;53.022;7.012;2023-09-30T11:29:15;18.40;99.90
54260;DHT22;40172;53.022;7.012;2023-09-30T11:31:42;18.30;99.90
54260;DHT22;40172;53.022;7.012;2023-09-30T11:34:09;18.10;99.90
54260;DHT22;40172;53.022;7.012;2023-09-30T11:36:36;18.00;99.90
54260;DHT22;40172;53.022;7.012;2023-09-30T11:39:03;17.80;99.90
54260;DHT22;40172;53.022;7.012;2023-09-30T11:41:36;17.80;99.90
54260;DHT22;40172;53.022;7.012;2023-09-30T11:44:09;18.00;99.90
54260;DHT22;40172;53.022;7.012;2023-09-30T11:49:32;18.20;99.90
54260;DHT22;40172;53.022;7.012;2023-09-30T11:52:05;18.20;99.90
54260;DHT22;40172;53.022;7.012;2023-09-30T11:54:36;18.20;99.90
54260;DHT22;40172;53.022;7.012;2023-09-30T11:57:18;18.20;99.90
54260;DHT22;40172;53.022;7.012;2023-09-30T11:59:45;18.20;99.90
54260;DHT22;40172;53.022;7.012;2023-09-30T12:02:15;18.30;99.90
54260;DHT22;40172;53.022;7.012;2023-09-30T12:04:42;18.50;99.90
54260;DHT22;40172;53.022;7.012;2023-09-30T12:07:08;18.50;99.90
54260;DHT22;40172;53.022;7.012;2023-09-30T12:09:34;18.50;99.90
54260;DHT22;40172;53.022;7.012;2023-09-30T12:12:03;19.20;99.90
54260;DHT22;40172;53.022;7.012;2023-09-30T12:14:28;18.30;99.90
54260;DHT22;40172;53.022;7.012;2023-09-30T12:16:55;18.20;99.90
54260;DHT22;40172;53.022;7.012;2023-09-30T12:19:21;18.20;99.90
54260;DHT22;40172;53.022;7.012;2023-09-30T12:21:47;18.50;99.90
54260;DHT22;40172;53.022;7.012;2023-09-30T12:24:17;18.40;99.90
54260;DHT22;40172;53.022;7.012;2023-09-30T12:26:48;18.50;99.90
54260;DHT22;40172;53.022;7.012;2023-09-30T12:29:15;18.70;99.90
54260;DHT22;40172;53.022;7.012;2023-09-30T12:31:43;18.80;99.90
54260;DHT22;40172;53.022;7.012;2023-09-30T12:34:09;18.90;99.90
54260;DHT22;40172;53.022;7.012;2023-09-30T12:36:35;19.00;99.90
54260;DHT22;40172;53.022;7.012;2023-09-30T12:39:00;19.00;99.90
54260;DHT22;40172;53.022;7.012;2023-09-30T12:41:26;19.00;99.90
54260;DHT22;40172;53.022;7.012;2023-09-30T12:43:52;19.10;99.90
54260;DHT22;40172;53.022;7.012;2023-09-30T12:46:18;19.50;99.90
54260;DHT22;40172;53.022;7.012;2023-09-30T12:48:44;18.90;99.90
54260;DHT22;40172;53.022;7.012;2023-09-30T12:51:10;19.00;99.90
54260;DHT22;40172;53.022;7.012;2023-09-30T12:53:36;19.30;99.90
54260;DHT22;40172;53.022;7.012;2023-09-30T12:56:01;18.70;99.90
54260;DHT22;40172;53.022;7.012;2023-09-30T12:58:27;18.70;99.90
54260;DHT22;40172;53.022;7.012;2023-09-30T13:00:57;18.60;99.90
54260;DHT22;40172;53.022;7.012;2023-09-30T13:03:23;18.60;99.90
54260;DHT22;40172;53.022;7.012;2023-09-30T13:05:49;18.50;99.90
54260;DHT22;40172;53.022;7.012;2023-09-30T13:08:15;18.60;99.90
54260;DHT22;40172;53.022;7.012;2023-09-30T13:10:41;18.60;99.90
54260;DHT22;40172;53.022;7.012;2023-09-30T13:13:07;18.60;99.90
54260;DHT22;40172;53.022;7.012;2023-09-30T13:15:33;18.60;99.90
54260;DHT22;40172;53.022;7.012;2023-09-30T13:17:58;18.60;99.90
54260;DHT22;40172;53.022;7.012;2023-09-30T13:20:24;18.70;99.90
54260;DHT22;40172;53.022;7.012;2023-09-30T13:22:50;18.70;99.90
54260;DHT22;40172;53.022;7.012;2023-09-30T13:25:16;18.70;99.90
54260;DHT22;40172;53.022;7.012;2023-09-30T13:27:42;18.70;99.90
54260;DHT22;40172;53.022;7.012;2023-09-30T13:30:08;18.70;99.90
54260;DHT22;40172;53.022;7.012;2023-09-30T13:32:35;18.70;99.90
54260;DHT22;40172;53.022;7.012;2023-09-30T13:35:06;18.70;99.90
54260;DHT22;40172;53.022;7.012;2023-09-30T13:37:33;18.80;99.90
54260;DHT22;40172;53.022;7.012;2023-09-30T13:40:04;18.80;99.90
54260;DHT22;40172;53.022;7.012;2023-09-30T13:42:33;18.80;99.90
54260;DHT22;40172;53.022;7.012;2023-09-30T13:44:59;19.20;99.90
54260;DHT22;40172;53.022;7.012;2023-09-30T13:47:25;18.70;99.90
54260;DHT22;40172;53.022;7.012;2023-09-30T13:49:52;18.70;99.90
54260;DHT22;40172;53.022;7.012;2023-09-30T13:52:18;18.70;99.90
54260;DHT22;40172;53.022;7.012;2023-09-30T13:54:43;18.70;99.90
54260;DHT22;40172;53.022;7.012;2023-09-30T13:57:09;19.30;99.90
54260;DHT22;40172;53.022;7.012;2023-09-30T13:59:36;20.00;99.90
54260;DHT22;40172;53.022;7.012;2023-09-30T14:02:02;18.70;99.90
54260;DHT22;40172;53.022;7.012;2023-09-30T14:04:30;18.80;99.90
54260;DHT22;40172;53.022;7.012;2023-09-30T14:06:58;19.40;99.90
54260;DHT22;40172;53.022;7.012;2023-09-30T14:09:26;19.10;99.90
54260;DHT22;40172;53.022;7.012;2023-09-30T14:11:52;19.20;99.90
54260;DHT22;40172;53.022;7.012;2023-09-30T14:14:17;19.30;99.90
54260;DHT22;40172;53.022;7.012;2023-09-30T14:16:43;19.30;99.90
54260;DHT22;40172;53.022;7.012;2023-09-30T14:19:08;20.40;99.90
54260;DHT22;40172;53.022;7.012;2023-09-30T14:21:34;19.40;99.90
54260;DHT22;40172;53.022;7.012;2023-09-30T14:24:00;19.80;99.90
54260;DHT22;40172;53.022;7.012;2023-09-30T14:26:28;19.50;99.90
54260;DHT22;40172;53.022;7.012;2023-09-30T14:28:54;19.60;99.90
54260;DHT22;40172;53.022;7.012;2023-09-30T14:31:20;19.20;99.90
54260;DHT22;40172;53.022;7.012;2023-09-30T14:33:52;19.40;99.90
54260;DHT22;40172;53.022;7.012;2023-09-30T14:36:18;19.90;99.90
54260;DHT22;40172;53.022;7.012;2023-09-30T14:38:45;20.20;99.90
54260;DHT22;40172;53.022;7.012;2023-09-30T14:41:11;19.50;99.90
54260;DHT22;40172;53.022;7.012;2023-09-30T14:43:38;19.30;99.90
54260;DHT22;40172;53.022;7.012;2023-09-30T14:46:04;19.40;99.90
54260;DHT22;40172;53.022;7.012;2023-09-30T14:48:31;19.30;99.90
54260;DHT22;40172;53.022;7.012;2023-09-30T14:50:57;19.30;99.90
54260;DHT22;40172;53.022;7.012;2023-09-30T14:53:23;19.20;99.90
54260;DHT22;40172;53.022;7.012;2023-09-30T14:55:50;19.40;99.90
54260;DHT22;40172;53.022;7.012;2023-09-30T14:58:16;20.10;99.90
54260;DHT22;40172;53.022;7.012;2023-09-30T15:00:41;18.50;99.90
54260;DHT22;40172;53.022;7.012;2023-09-30T15:03:07;19.00;99.90
54260;DHT22;40172;53.022;7.012;2023-09-30T15:05:33;19.00;99.90
54260;DHT22;40172;53.022;7.012;2023-09-30T15:07:59;19.00;99.90
54260;DHT22;40172;53.022;7.012;2023-09-30T15:10:27;18.90;99.90
54260;DHT22;40172;53.022;7.012;2023-09-30T15:12:54;18.90;99.90
54260;DHT22;40172;53.022;7.012;2023-09-30T15:15:20;18.90;99.90
54260;DHT22;40172;53.022;7.012;2023-09-30T15:17:45;18.80;99.90
54260;DHT22;40172;53.022;7.012;2023-09-30T15:20:11;18.80;99.90
54260;DHT22;40172;53.022;7.012;2023-09-30T15:22:37;18.80;99.90
54260;DHT22;40172;53.022;7.012;2023-09-30T15:25:03;18.70;99.90
54260;DHT22;40172;53.022;7.012;2023-09-30T15:27:30;18.70;99.90
54260;DHT22;40172;53.022;7.012;2023-09-30T15:29:58;18.60;99.90
54260;DHT22;40172;53.022;7.012;2023-09-30T15:32:24;18.60;99.90
54260;DHT22;40172;53.022;7.012;2023-09-30T15:34:49;18.50;99.90
54260;DHT22;40172;53.022;7.012;2023-09-30T15:37:21;18.50;99.90
54260;DHT22;40172;53.022;7.012;2023-09-30T15:39:47;18.40;99.90
54260;DHT22;40172;53.022;7.012;2023-09-30T15:42:13;18.30;99.90
54260;DHT22;40172;53.022;7.012;2023-09-30T15:44:39;18.20;99.90
54260;DHT22;40172;53.022;7.012;2023-09-30T15:47:06;18.10;99.90
54260;DHT22;40172;53.022;7.012;2023-09-30T15:49:32;18.10;99.90
54260;DHT22;40172;53.022;7.012;2023-09-30T15:51:58;18.00;99.90
54260;DHT22;40172;53.022;7.012;2023-09-30T15:54:23;17.90;99.90
54260;DHT22;40172;53.022;7.012;2023-09-30T15:56:49;17.90;99.90
54260;DHT22;40172;53.022;7.012;2023-09-30T15:59:15;17.90;99.90